FLIGHT DETAILS
Pilot: ACV287 Shiljo Aircraft: PMDG - 747-400F KALITTA AIR N782CK Distance: 404NM
Departure EBLG Arrival LIMC Duration 0.97
Validation Validated Type Charter Tail Number N782CK
ZFW 245025 Block Fuel/Initial FOB 13,789/0 Flight Fuel 12,331
Passengers 0 Cargo 0 Alternate
Departure Time Cruise Speed Flight Level
Flight Type IFR Aircraft Type Weight Unit Kg
Date 2019-09-12 Pilot Comments Network IVAO
Crashed No Validator Comments Flight Rating 100

 ROUTE
ROUTE
REMARKS
 FLIGHT FAILURES
Crashed OK Beacon off & Engine Running Fail KIAS Above 250 below 10000 FT Fail
Lights OFF below 10000 FT Fail Lights ON above 10000 FT OK Stall OK
Overspeed OK Flight paused Fail Refueling OK
Slew detected Fail Taxi & Taxi lights off OK Take off & lights off OK
Landing & lights off OK Landed in not planned airport OK Taxi Speed OK
Wrong altimeter in Take off Fail Wrong altimeter in Landing OK
 LANDING ANALYSIS
Landing wind 6º/3 kt Landing heading 261
Landing VS: -156.1 ft/min Landing IAS: 144.8 kt
Landing Force G 1 G Landing Bank 0.2
Landing Pitch 3.9 Landing Flaps 33
Navigation Lights ON Landing Lights ON
Beacon Lights ON Strobe Lights ON
 FLIGHT MAP
 ALTITUDE CHART
 FLIGHT FINANCIAL REPORT
 MAIN EVENTS
DATE EVENTIASALTITUDE
2019-09-12 12:36:53 SIM ACARS version 1.4.10671
2019-09-12 12:36:53 BOARDING0671
2019-09-12 12:36:53 STARTING ENGINE 1 0671
2019-09-12 12:36:53 STARTING ENGINE 2 0671
2019-09-12 12:36:53 STARTING ENGINE 3 0671
2019-09-12 12:36:53 STARTING ENGINE 4 0671
2019-09-12 12:36:53 BEACON LIGHT OFF & ENGINE ON0671
2019-09-12 12:37:06 SLEW MODE ACTIVATED0671
2019-09-12 12:37:07 TAXI TO THE RWY 2671
2019-09-12 12:37:07 ROLLING FOR TAKE OFF14671
2019-09-12 12:48:31 PUSHBACK0671
2019-09-12 12:48:51 FLAPS EXTENSION 17 % 0671
2019-09-12 12:48:51 FLAPS EXTENSION 33 % 0671
2019-09-12 12:48:51 FLAPS EXTENSION 50 % 0671
2019-09-12 12:52:17 TAKE OFF185672
2019-09-12 12:52:19 GEAR UP193687
2019-09-12 12:52:29 FLAPS EXTENSION 67 % 2261093
2019-09-12 12:52:31 FLAPS EXTENSION 50 % 2301158
2019-09-12 12:52:31 FLAPS EXTENSION 33 % 2321180
2019-09-12 12:52:39 FLAPS EXTENSION 17 % 2601467
2019-09-12 12:52:39 IAS ABOVE 250 KNOTS BELOW 10000 ft2611478
2019-09-12 12:53:25 FLAPS EXTENSION 0 % 2533196
2019-09-12 13:08:37 CRUISE30733080
2019-09-12 13:18:27 CLIMBING29733455
2019-09-12 13:18:57 CRUISE30833500
2019-09-12 13:31:17 DESCEND33833077
2019-09-12 13:41:27 FLAPS EXTENSION 17 % 25710710
2019-09-12 13:41:30 FLAPS EXTENSION 33 % 25610630
2019-09-12 13:42:09 LIGHTS OFF BELOW 10000 ft2329497
2019-09-12 13:45:53 GEAR DOWN2233865
2019-09-12 13:45:55 FLAPS EXTENSION 50 % 2223805
2019-09-12 13:46:07 FLAPS EXTENSION 67 % 2103551
2019-09-12 13:46:16 FLAPS EXTENSION 83 % 1983340
2019-09-12 13:46:19 FLAPS EXTENSION 83 % 1943271
2019-09-12 13:46:19 FLAPS EXTENSION 83 % 1943270
2019-09-12 13:46:19 FLAPS EXTENSION 100 % 1943263
2019-09-12 13:46:19 FLAPS EXTENSION 83 % 1943261
2019-09-12 13:46:20 FLAPS EXTENSION 83 % 1943258
2019-09-12 13:46:20 FLAPS EXTENSION 100 % 1933250
2019-09-12 13:46:20 FLAPS EXTENSION 83 % 1933248
2019-09-12 13:46:20 FLAPS EXTENSION 100 % 1933241
2019-09-12 13:46:21 FLAPS EXTENSION 83 % 1923236
2019-09-12 13:46:21 FLAPS EXTENSION 100 % 1923230
2019-09-12 13:46:21 FLAPS EXTENSION 100 % 1923228
2019-09-12 13:46:22 FLAPS EXTENSION 100 % 1913209
2019-09-12 13:46:22 FLAPS EXTENSION 83 % 1913207
2019-09-12 13:46:22 FLAPS EXTENSION 100 % 1903203
2019-09-12 13:46:22 FLAPS EXTENSION 100 % 1903199
2019-09-12 13:46:23 FLAPS EXTENSION 100 % 1903190
2019-09-12 13:46:23 FLAPS EXTENSION 83 % 1903189
2019-09-12 13:46:23 FLAPS EXTENSION 100 % 1893185
2019-09-12 13:46:23 FLAPS EXTENSION 100 % 1893183
2019-09-12 13:46:23 FLAPS EXTENSION 100 % 1893181
2019-09-12 13:46:23 FLAPS EXTENSION 83 % 1893179
2019-09-12 13:46:24 FLAPS EXTENSION 100 % 1893174
2019-09-12 13:46:24 FLAPS EXTENSION 100 % 1893172
2019-09-12 13:46:24 FLAPS EXTENSION 83 % 1893169
2019-09-12 13:46:24 FLAPS EXTENSION 100 % 1883160
2019-09-12 13:46:24 FLAPS EXTENSION 83 % 1883158
2019-09-12 13:46:25 FLAPS EXTENSION 100 % 1873139
2019-09-12 13:46:25 FLAPS EXTENSION 83 % 1873136
2019-09-12 13:46:26 FLAPS EXTENSION 100 % 1863128
2019-09-12 13:46:26 FLAPS EXTENSION 83 % 1863126
2019-09-12 13:46:26 FLAPS EXTENSION 83 % 1863122
2019-09-12 13:46:26 FLAPS EXTENSION 100 % 1863120
2019-09-12 13:46:26 FLAPS EXTENSION 83 % 1863118
2019-09-12 13:46:26 FLAPS EXTENSION 100 % 1853116
2019-09-12 13:46:26 FLAPS EXTENSION 83 % 1853114
2019-09-12 13:46:27 FLAPS EXTENSION 83 % 1853104
2019-09-12 13:46:27 FLAPS EXTENSION 83 % 1843101
2019-09-12 13:46:27 FLAPS EXTENSION 100 % 1843093
2019-09-12 13:46:27 FLAPS EXTENSION 83 % 1833091
2019-09-12 13:46:28 FLAPS EXTENSION 100 % 1833082
2019-09-12 13:46:28 FLAPS EXTENSION 83 % 1823079
2019-09-12 13:46:28 FLAPS EXTENSION 100 % 1823075
2019-09-12 13:46:28 FLAPS EXTENSION 100 % 1823074
2019-09-12 13:46:29 FLAPS EXTENSION 100 % 1823070
2019-09-12 13:46:29 FLAPS EXTENSION 83 % 1813069
2019-09-12 13:46:29 FLAPS EXTENSION 100 % 1813066
2019-09-12 13:46:29 FLAPS EXTENSION 100 % 1813065
2019-09-12 13:46:29 FLAPS EXTENSION 83 % 1813062
2019-09-12 13:46:29 FLAPS EXTENSION 100 % 1803059
2019-09-12 13:46:29 FLAPS EXTENSION 100 % 1803058
2019-09-12 13:46:30 FLAPS EXTENSION 83 % 1793053
2019-09-12 13:46:30 FLAPS EXTENSION 100 % 1793052
2019-09-12 13:46:30 FLAPS EXTENSION 100 % 1783046
2019-09-12 13:46:30 FLAPS EXTENSION 100 % 1783044
2019-09-12 13:46:31 FLAPS EXTENSION 83 % 1773039
2019-09-12 13:46:31 FLAPS EXTENSION 100 % 1773037
2019-09-12 13:46:31 FLAPS EXTENSION 83 % 1763032
2019-09-12 13:46:32 FLAPS EXTENSION 100 % 1763029
2019-09-12 13:46:32 FLAPS EXTENSION 83 % 1753027
2019-09-12 13:46:32 FLAPS EXTENSION 83 % 1753025
2019-09-12 13:46:32 FLAPS EXTENSION 83 % 1753024
2019-09-12 13:46:32 FLAPS EXTENSION 100 % 1743022
2019-09-12 13:46:32 FLAPS EXTENSION 83 % 1743021
2019-09-12 13:46:33 FLAPS EXTENSION 83 % 1743018
2019-09-12 13:46:33 FLAPS EXTENSION 100 % 1733014
2019-09-12 13:46:33 FLAPS EXTENSION 83 % 1733012
2019-09-12 13:46:33 FLAPS EXTENSION 100 % 1723009
2019-09-12 13:46:34 FLAPS EXTENSION 83 % 1723008
2019-09-12 13:46:34 FLAPS EXTENSION 83 % 1713006
2019-09-12 13:46:34 FLAPS EXTENSION 100 % 1713004
2019-09-12 13:46:34 FLAPS EXTENSION 83 % 1713002
2019-09-12 13:46:34 FLAPS EXTENSION 100 % 1702999
2019-09-12 13:47:27 CRUISE1483018
2019-09-12 13:49:17 DESCEND1482716
2019-09-12 13:51:26 SIM PAUSED1481007
2019-09-12 13:51:27 SIM UNPAUSED1481006
2019-09-12 13:51:47 LANDING145780
2019-09-12 13:52:06 FLAPS EXTENSION 33 % 107780
2019-09-12 13:52:22 FLAPS EXTENSION 17 % 39779
2019-09-12 13:53:09 TAXI TO THE GATE20779
2019-09-12 13:53:09 FLAPS EXTENSION 0 % 20779
2019-09-12 13:54:39 STOPPING ENGINE 2 0779
2019-09-12 13:54:40 STOPPING ENGINE 1 0779
2019-09-12 13:54:40 STOPPING ENGINE 3 0779
2019-09-12 13:54:41 STOPPING ENGINE 4 0779
 ACARS DATA
DATE IASGSALTITUDEFUEL CONSUMED OATFLIGHT STATUS
2019-09-12 12:37:53006713813TAXI TO THE RWY
2019-09-12 12:38:53006717913TAXI TO THE RWY
2019-09-12 12:39:530067112013TAXI TO THE RWY
2019-09-12 12:40:530067116013TAXI TO THE RWY
2019-09-12 12:41:530067120113TAXI TO THE RWY
2019-09-12 12:42:530067124213TAXI TO THE RWY
2019-09-12 12:43:530067128213TAXI TO THE RWY
2019-09-12 12:44:530067132313TAXI TO THE RWY
2019-09-12 12:45:530067136413TAXI TO THE RWY
2019-09-12 12:46:530067140413TAXI TO THE RWY
2019-09-12 12:47:530067144513TAXI TO THE RWY
2019-09-12 12:48:530267148613TAXI TO THE RWY
2019-09-12 12:49:53101067157113TAXI TO THE RWY
2019-09-12 12:50:53201967167413TAXI TO THE RWY
2019-09-12 12:51:53414667184813TAXI TO THE RWY
2019-09-12 12:52:532602621901161211CLIMBING
2019-09-12 12:53:53253265437820436CLIMBING
2019-09-12 12:54:53252274684524641CLIMBING
2019-09-12 12:55:5325228493512893-3CLIMBING
2019-09-12 12:56:53280325116113342-7CLIMBING
2019-09-12 12:57:53330391146043830-13CLIMBING
2019-09-12 12:58:53330415183434253-21CLIMBING
2019-09-12 12:59:53330434212974623-26CLIMBING
2019-09-12 13:00:53330449235834957-31CLIMBING
2019-09-12 13:01:53330463255985267-35CLIMBING
2019-09-12 13:02:53330475272795557-38CLIMBING
2019-09-12 13:03:53330486286505825-40CLIMBING
2019-09-12 13:04:53330495298126084-40CLIMBING
2019-09-12 13:05:53321493312796332-44CLIMBING
2019-09-12 13:06:53311491324916560-46CLIMBING
2019-09-12 13:07:53304487331686762-46CLIMBING
2019-09-12 13:08:53307492330936941-45CRUISE
2019-09-12 13:09:53309492332127118-43CRUISE
2019-09-12 13:10:53308492332417292-43CRUISE
2019-09-12 13:11:53310492332527466-43CRUISE
2019-09-12 13:12:53309486332227624-42CRUISE
2019-09-12 13:13:53307491331787807-45CRUISE
2019-09-12 13:14:53308492330647975-43CRUISE
2019-09-12 13:15:53309494332868165-42CRUISE
2019-09-12 13:16:53310495333228343-41CRUISE
2019-09-12 13:17:53288501333728533-38CRUISE
2019-09-12 13:18:53306530334968769-38CLIMBING
2019-09-12 13:19:53313539335138962-38CRUISE
2019-09-12 13:20:53313535335189137-38CRUISE
2019-09-12 13:21:53313532335219311-38CRUISE
2019-09-12 13:22:53313533335369487-38CRUISE
2019-09-12 13:23:53316540335449676-38CRUISE
2019-09-12 13:24:53314540335599851-38CRUISE
2019-09-12 13:25:53303527335649999-39CRUISE
2019-09-12 13:26:533415123357910173-39CRUISE
2019-09-12 13:27:532824533356710281-39CRUISE
2019-09-12 13:28:532744883357510515-39CRUISE
2019-09-12 13:29:532995223356810747-39CRUISE
2019-09-12 13:30:533445253355110937-39CRUISE
2019-09-12 13:31:533174613233910998-37DESCEND
2019-09-12 13:32:533034233055211057-33DESCEND
2019-09-12 13:33:532984102800311116-27DESCEND
2019-09-12 13:34:532893842617811177-23DESCEND
2019-09-12 13:35:532853672411211238-19DESCEND
2019-09-12 13:36:532963802231111346-15DESCEND
2019-09-12 13:37:533054161896511407-8DESCEND
2019-09-12 13:38:533424141650511467-4DESCEND
2019-09-12 13:39:5333838714004115280DESCEND
2019-09-12 13:40:5328432011862115892DESCEND
2019-09-12 13:41:532372759900116505DESCEND
2019-09-12 13:42:532202418367117148DESCEND
2019-09-12 13:43:5322123968711179610DESCEND
2019-09-12 13:44:5322223653651186813DESCEND
2019-09-12 13:45:5322323538641195915DESCEND
2019-09-12 13:46:5313814729411205816DESCEND
2019-09-12 13:47:5314815630181246616CRUISE
2019-09-12 13:48:5314915729881283016CRUISE
2019-09-12 13:49:5314815122321308217DESCEND
2019-09-12 13:50:5314614714371332423DESCEND
2019-09-12 13:51:531331277791354624LANDED
2019-09-12 13:52:5324227791360724LANDED
2019-09-12 13:53:53857791370724TAXI TO THE GATE
2019-09-12 13:54:53007791377924TAXI TO THE GATE
2019-09-12 13:55:53007791378724TAXI TO THE GATE